createdAt,value
2023-02-17T00:04:56.875Z,100816.75
2023-02-17T00:10:01.628Z,100811.13
2023-02-17T00:15:13.376Z,100800.33
2023-02-17T00:20:17.386Z,100802.50
2023-02-17T00:25:21.345Z,100806.36
2023-02-17T00:30:25.164Z,100810.89
2023-02-17T00:35:31.657Z,100803.90
2023-02-17T00:40:35.488Z,100804.59
2023-02-17T00:45:42.258Z,100803.70
2023-02-17T00:50:46.729Z,100796.75
2023-02-17T00:55:50.719Z,100792.41
2023-02-17T01:01:01.782Z,100785.10
2023-02-17T01:06:08.377Z,100781.10
2023-02-17T01:11:24.709Z,100779.83
2023-02-17T01:16:35.602Z,100770.14
2023-02-17T01:21:40.036Z,100771.48
2023-02-17T01:26:49.127Z,100771.13
2023-02-17T01:31:53.430Z,100762.02
2023-02-17T01:36:57.900Z,100760.44
2023-02-17T01:42:04.077Z,100761.67
2023-02-17T01:47:13.357Z,100758.84
2023-02-17T01:52:23.746Z,100751.20
2023-02-17T01:57:31.323Z,100739.15
2023-02-17T02:02:38.048Z,100729.27
2023-02-17T02:07:43.184Z,100717.70
2023-02-17T02:12:50.127Z,100711.92
2023-02-17T02:18:21.898Z,100701.44
2023-02-17T02:23:47.937Z,100692.54
2023-02-17T02:29:48.713Z,100689.91
2023-02-17T02:35:02.150Z,100685.61
2023-02-17T02:40:09.299Z,100675.38
2023-02-17T02:45:14.428Z,100674.61
2023-02-17T02:50:36.416Z,100665.13
2023-02-17T02:56:29.397Z,100656.88
2023-02-17T03:02:22.932Z,100656.88
2023-02-17T03:07:40.322Z,100654.27
2023-02-17T03:12:45.629Z,100646.51
2023-02-17T03:17:49.530Z,100645.68
2023-02-17T03:22:55.189Z,100641.63
2023-02-17T03:28:04.377Z,100640.19
2023-02-17T03:33:09.137Z,100643.30
2023-02-17T03:38:13.048Z,100646.69
2023-02-17T03:43:18.109Z,100639.55
2023-02-17T03:48:33.119Z,100633.34
2023-02-17T03:53:40.453Z,100642.27
2023-02-17T03:58:44.402Z,100633.01
2023-02-17T04:03:48.516Z,100626.17
2023-02-17T04:08:56.412Z,100629.92
2023-02-17T04:14:00.460Z,100628.42
2023-02-17T04:19:04.384Z,100623.24
2023-02-17T04:24:08.545Z,100624.08
2023-02-17T04:29:12.316Z,100618.84
2023-02-17T04:34:17.663Z,100603.06
2023-02-17T04:39:22.161Z,100591.86
2023-02-17T04:44:26.217Z,100583.27
2023-02-17T04:49:31.205Z,100578.23
2023-02-17T04:54:35.233Z,100573.27
2023-02-17T04:59:40.904Z,100578.77
2023-02-17T05:04:46.445Z,100575.21
2023-02-17T05:09:50.693Z,100567.27
2023-02-17T05:14:58.331Z,100555.15
2023-02-17T05:20:09.276Z,100559.23
2023-02-17T05:25:15.716Z,100558.05
2023-02-17T05:30:20.089Z,100558.44
2023-02-17T05:35:25.242Z,100552.10
2023-02-17T05:40:35.337Z,100550.61
2023-02-17T05:45:39.162Z,100547.16
2023-02-17T05:50:46.131Z,100537.36
2023-02-17T05:55:49.967Z,100528.48
2023-02-17T06:00:54.088Z,100522.86
2023-02-17T06:05:58.235Z,100524.11
2023-02-17T06:11:02.355Z,100532.68
2023-02-17T06:16:12.403Z,100531.67
2023-02-17T06:21:16.264Z,100537.48
2023-02-17T06:26:23.672Z,100540.36
2023-02-17T06:31:30.560Z,100544.43
2023-02-17T06:36:34.565Z,100539.17
2023-02-17T06:41:38.543Z,100541.86
2023-02-17T06:46:42.413Z,100533.23
2023-02-17T06:51:52.215Z,100533.18
2023-02-17T06:56:59.108Z,100524.86
2023-02-17T07:02:05.941Z,100516.48
2023-02-17T07:07:10.672Z,100520.83
2023-02-17T07:12:14.642Z,100520.96
2023-02-17T07:17:18.339Z,100527.86
2023-02-17T07:22:22.181Z,100523.67
2023-02-17T07:27:26.150Z,100519.98
2023-02-17T07:32:32.856Z,100512.14
2023-02-17T07:37:37.714Z,100500.90
2023-02-17T07:42:41.527Z,100492.49
2023-02-17T07:47:47.569Z,100491.09
2023-02-17T07:52:51.779Z,100488.98
2023-02-17T07:57:55.666Z,100490.67
2023-02-17T08:02:59.732Z,100482.89
2023-02-17T08:08:22.064Z,100485.61
2023-02-17T08:13:28.503Z,100481.40
2023-02-17T08:18:36.537Z,100478.01
2023-02-17T08:23:43.330Z,100475.71
2023-02-17T08:28:50.243Z,100475.59
2023-02-17T08:33:54.357Z,100476.59
2023-02-17T08:38:59.201Z,100486.70
2023-02-17T08:44:07.282Z,100476.62
2023-02-17T08:49:11.349Z,100464.94
2023-02-17T08:54:16.125Z,100458.87
2023-02-17T08:59:20.665Z,100456.54
2023-02-17T09:04:25.023Z,100458.55
2023-02-17T09:09:29.417Z,100460.41
2023-02-17T09:14:33.760Z,100454.55
2023-02-17T09:19:41.380Z,100461.59
2023-02-17T09:24:47.552Z,100462.64
2023-02-17T09:29:51.500Z,100463.16
2023-02-17T09:34:55.659Z,100451.90
2023-02-17T09:39:59.678Z,100444.35
2023-02-17T09:45:12.841Z,100436.34
2023-02-17T09:50:29.030Z,100429.64
2023-02-17T09:55:50.521Z,100427.92
2023-02-17T10:00:59.327Z,100426.56
2023-02-17T10:06:19.689Z,100420.95
2023-02-17T10:11:55.444Z,100418.33
2023-02-17T10:17:27.937Z,100404.56
2023-02-17T10:22:31.832Z,100395.11
2023-02-17T10:28:11.342Z,100390.48
2023-02-17T10:33:28.696Z,100379.73
2023-02-17T10:38:54.984Z,100373.75
2023-02-17T10:44:01.043Z,100368.81
2023-02-17T10:49:07.134Z,100365.23
2023-02-17T10:54:22.276Z,100352.38
2023-02-17T10:59:47.441Z,100336.06
2023-02-17T11:04:55.492Z,100321.21
2023-02-17T11:10:02.429Z,100308.11
2023-02-17T11:15:16.187Z,100305.34
2023-02-17T11:20:40.393Z,100296.15
2023-02-17T11:25:44.835Z,100292.06
2023-02-17T11:30:55.087Z,100287.48
2023-02-17T11:35:59.899Z,100276.31
2023-02-17T11:41:07.340Z,100264.96
2023-02-17T11:46:39.518Z,100249.89
2023-02-17T11:52:05.261Z,100241.88
2023-02-17T11:57:39.693Z,100223.86
2023-02-17T12:03:25.625Z,100209.05
2023-02-17T12:09:17.488Z,100191.13
2023-02-17T12:14:59.033Z,100175.95
2023-02-17T12:20:25.477Z,100159.98
2023-02-17T12:25:36.204Z,100159.13
2023-02-17T12:31:09.899Z,100153.09
2023-02-17T12:36:17.712Z,100143.06
2023-02-17T12:41:25.677Z,100137.95
2023-02-17T12:46:35.677Z,100133.15
2023-02-17T12:51:48.874Z,100123.02
2023-02-17T12:57:22.063Z,100106.50
2023-02-17T13:02:26.940Z,100098.55
2023-02-17T13:08:00.807Z,100089.84
2023-02-17T13:13:10.185Z,100078.91
2023-02-17T13:18:32.294Z,100067.22
2023-02-17T13:23:41.516Z,100059.90
2023-02-17T13:28:46.203Z,100051.86
2023-02-17T13:33:52.973Z,100047.54
2023-02-17T13:39:01.410Z,100042.08
2023-02-17T13:44:29.926Z,100035.05
2023-02-17T13:49:35.690Z,100027.70
2023-02-17T13:54:39.670Z,100016.16
2023-02-17T13:59:43.743Z,100014.95
2023-02-17T14:04:48.015Z,99995.20
2023-02-17T14:09:55.283Z,99982.88
2023-02-17T14:14:59.184Z,99971.90
2023-02-17T14:20:04.679Z,99962.23
2023-02-17T14:25:14.284Z,99952.48
2023-02-17T14:30:38.707Z,99945.05
2023-02-17T14:36:01.426Z,99936.83
2023-02-17T14:41:07.275Z,99926.41
2023-02-17T14:46:12.287Z,99912.17
2023-02-17T14:51:20.306Z,99907.27
2023-02-17T14:56:37.565Z,99896.10
2023-02-17T15:01:42.002Z,99887.18
2023-02-17T15:06:53.295Z,99876.27
2023-02-17T15:11:58.476Z,99860.83
2023-02-17T15:17:03.212Z,99842.93
2023-02-17T15:22:08.695Z,99829.45
2023-02-17T15:27:17.761Z,99816.23
2023-02-17T15:32:25.502Z,99803.02
2023-02-17T15:37:30.016Z,99780.01
2023-02-17T15:42:34.942Z,99782.55
2023-02-17T15:47:39.600Z,99773.95
2023-02-17T15:52:46.590Z,99768.59
2023-02-17T15:57:58.786Z,99780.20
2023-02-17T16:03:06.286Z,99775.14
2023-02-17T16:08:15.907Z,99778.05
2023-02-17T16:13:20.896Z,99778.84
2023-02-17T16:18:28.063Z,99779.91
2023-02-17T16:23:33.221Z,99781.39
2023-02-17T16:28:37.387Z,99794.44
2023-02-17T16:33:42.242Z,99791.09
2023-02-17T16:38:54.419Z,99788.55
2023-02-17T16:43:59.474Z,99797.42
2023-02-17T16:49:36.978Z,99797.67
2023-02-17T16:54:41.377Z,99793.55
2023-02-17T16:59:47.674Z,99801.17
2023-02-17T17:04:57.209Z,99804.30
2023-02-17T17:10:57.740Z,99803.61
2023-02-17T17:16:37.936Z,99822.94
2023-02-17T17:21:54.714Z,99820.39
2023-02-17T17:27:05.133Z,99810.42
2023-02-17T17:32:16.588Z,99806.84
2023-02-17T19:18:35.926Z,99750.17
2023-02-17T19:23:42.364Z,99748.02
2023-02-17T19:28:47.198Z,99756.96
2023-02-17T19:33:54.334Z,99786.70
2023-02-17T19:39:01.814Z,99788.88
2023-02-17T19:44:50.354Z,99805.21
2023-02-17T19:50:17.807Z,99827.28
2023-02-17T19:55:28.732Z,99807.82
2023-02-17T20:00:42.301Z,99820.71
2023-02-17T20:05:56.273Z,99809.48
2023-02-17T20:11:10.429Z,99825.94
2023-02-17T20:16:27.451Z,99833.33
2023-02-17T20:22:23.736Z,99829.40
2023-02-17T20:27:32.966Z,99822.98
2023-02-17T20:32:42.123Z,99819.83
2023-02-17T20:37:56.042Z,99815.80
2023-02-17T20:43:09.370Z,99803.98
2023-02-17T20:48:28.666Z,99810.17
2023-02-17T20:53:34.615Z,99807.41
2023-02-17T20:58:40.431Z,99796.36
2023-02-17T21:03:46.027Z,99799.02
2023-02-17T21:08:52.875Z,99810.30
2023-02-17T21:13:58.797Z,99816.00
2023-02-17T21:19:04.906Z,99810.73
2023-02-17T21:24:10.033Z,99825.45
2023-02-17T21:29:14.834Z,99844.71
2023-02-17T21:34:20.014Z,99841.08
2023-02-17T21:39:24.762Z,99849.50
2023-02-17T21:44:48.946Z,99852.16
2023-02-17T21:49:55.259Z,99855.20
2023-02-17T21:55:01.742Z,99859.91
2023-02-17T22:00:07.184Z,99858.08
2023-02-17T22:05:17.552Z,99871.33
2023-02-17T22:10:21.497Z,99885.23
2023-02-17T22:15:25.502Z,99928.42
2023-02-17T22:20:29.324Z,99935.48
2023-02-17T22:25:33.277Z,99945.04
2023-02-17T22:30:37.261Z,99949.16
2023-02-17T22:35:41.270Z,99941.58
2023-02-17T22:40:45.257Z,99941.42
2023-02-17T22:45:49.249Z,99934.88
2023-02-17T22:50:53.314Z,99936.30
2023-02-17T22:55:58.214Z,99933.42
2023-02-17T23:01:09.347Z,99936.20
2023-02-17T23:06:15.653Z,99957.27
2023-02-17T23:11:42.790Z,99960.15
2023-02-17T23:16:47.077Z,99962.89
2023-02-17T23:21:54.029Z,99969.98
2023-02-17T23:27:00.773Z,99976.77
2023-02-17T23:32:05.392Z,99985.16
2023-02-17T23:37:09.468Z,99988.08
2023-02-17T23:42:13.366Z,99989.64
2023-02-17T23:47:17.302Z,99984.08
2023-02-17T23:52:21.425Z,99994.92
2023-02-17T23:57:27.094Z,99996.89
